sensor_id;sensor_type;location;lat;lon;timestamp;pressure;altitude;pressure_sealevel;temperature;humidity
20077;BME280;12348;42.710;23.378;2022-12-18T00:00:12;95864.00;;;5.86;100.00
20077;BME280;12348;42.710;23.378;2022-12-18T00:02:39;95855.38;;;5.95;100.00
20077;BME280;12348;42.710;23.378;2022-12-18T00:05:07;95852.72;;;5.95;100.00
20077;BME280;12348;42.710;23.378;2022-12-18T00:07:35;95871.22;;;5.85;100.00
20077;BME280;12348;42.710;23.378;2022-12-18T00:10:03;95876.41;;;5.92;100.00
20077;BME280;12348;42.710;23.378;2022-12-18T00:12:29;95869.94;;;5.88;100.00
20077;BME280;12348;42.710;23.378;2022-12-18T00:14:56;95865.31;;;5.83;100.00
20077;BME280;12348;42.710;23.378;2022-12-18T00:17:23;95879.97;;;5.80;100.00
20077;BME280;12348;42.710;23.378;2022-12-18T00:19:50;95875.41;;;5.81;100.00
20077;BME280;12348;42.710;23.378;2022-12-18T00:22:18;95887.97;;;5.80;100.00
20077;BME280;12348;42.710;23.378;2022-12-18T00:24:45;95886.91;;;5.81;100.00
20077;BME280;12348;42.710;23.378;2022-12-18T00:27:12;95880.50;;;5.66;100.00
20077;BME280;12348;42.710;23.378;2022-12-18T00:29:40;95884.69;;;5.62;100.00
20077;BME280;12348;42.710;23.378;2022-12-18T00:32:06;95887.91;;;5.64;100.00
20077;BME280;12348;42.710;23.378;2022-12-18T00:34:33;95899.59;;;5.74;100.00
20077;BME280;12348;42.710;23.378;2022-12-18T00:37:00;95899.38;;;5.76;100.00
20077;BME280;12348;42.710;23.378;2022-12-18T00:39:28;95901.94;;;5.71;100.00
20077;BME280;12348;42.710;23.378;2022-12-18T00:41:55;95901.00;;;5.77;100.00
20077;BME280;12348;42.710;23.378;2022-12-18T00:44:39;95899.81;;;5.56;100.00
20077;BME280;12348;42.710;23.378;2022-12-18T00:47:06;95912.28;;;5.50;100.00
20077;BME280;12348;42.710;23.378;2022-12-18T00:49:33;95920.84;;;5.52;100.00
20077;BME280;12348;42.710;23.378;2022-12-18T00:51:59;95926.09;;;5.47;100.00
20077;BME280;12348;42.710;23.378;2022-12-18T00:54:28;95922.28;;;5.43;100.00
20077;BME280;12348;42.710;23.378;2022-12-18T00:56:54;95925.53;;;5.45;100.00
20077;BME280;12348;42.710;23.378;2022-12-18T00:59:21;95918.84;;;5.31;100.00
20077;BME280;12348;42.710;23.378;2022-12-18T01:04:16;95920.44;;;5.32;100.00
20077;BME280;12348;42.710;23.378;2022-12-18T01:06:43;95921.13;;;5.39;100.00
20077;BME280;12348;42.710;23.378;2022-12-18T01:09:10;95928.75;;;5.47;100.00
20077;BME280;12348;42.710;23.378;2022-12-18T01:11:39;95929.06;;;5.34;100.00
20077;BME280;12348;42.710;23.378;2022-12-18T01:14:06;95930.06;;;5.33;100.00
20077;BME280;12348;42.710;23.378;2022-12-18T01:16:33;95939.06;;;5.27;100.00
20077;BME280;12348;42.710;23.378;2022-12-18T01:19:01;95940.34;;;5.13;100.00
20077;BME280;12348;42.710;23.378;2022-12-18T01:21:28;95941.88;;;5.08;100.00
20077;BME280;12348;42.710;23.378;2022-12-18T01:23:56;95944.88;;;5.00;100.00
20077;BME280;12348;42.710;23.378;2022-12-18T01:26:23;95944.22;;;4.93;100.00
20077;BME280;12348;42.710;23.378;2022-12-18T01:28:55;95938.28;;;4.91;100.00
20077;BME280;12348;42.710;23.378;2022-12-18T01:31:24;95941.41;;;4.88;100.00
20077;BME280;12348;42.710;23.378;2022-12-18T01:33:52;95939.78;;;4.87;100.00
20077;BME280;12348;42.710;23.378;2022-12-18T01:36:21;95940.03;;;4.97;100.00
20077;BME280;12348;42.710;23.378;2022-12-18T01:38:48;95940.25;;;4.96;100.00
20077;BME280;12348;42.710;23.378;2022-12-18T01:41:18;95954.38;;;4.96;100.00
20077;BME280;12348;42.710;23.378;2022-12-18T01:43:49;95953.84;;;4.94;100.00
20077;BME280;12348;42.710;23.378;2022-12-18T01:46:19;95961.13;;;4.99;100.00
20077;BME280;12348;42.710;23.378;2022-12-18T01:48:48;95946.88;;;4.93;100.00
20077;BME280;12348;42.710;23.378;2022-12-18T01:51:16;95961.03;;;4.82;100.00
20077;BME280;12348;42.710;23.378;2022-12-18T01:53:44;95950.81;;;4.79;100.00
20077;BME280;12348;42.710;23.378;2022-12-18T01:56:16;95957.06;;;4.73;100.00
20077;BME280;12348;42.710;23.378;2022-12-18T01:58:52;95952.34;;;4.75;100.00
20077;BME280;12348;42.710;23.378;2022-12-18T02:01:23;95960.19;;;4.70;100.00
20077;BME280;12348;42.710;23.378;2022-12-18T02:03:51;95952.56;;;4.61;100.00
20077;BME280;12348;42.710;23.378;2022-12-18T02:06:21;95964.97;;;4.56;100.00
20077;BME280;12348;42.710;23.378;2022-12-18T02:09:02;95964.03;;;4.50;100.00
20077;BME280;12348;42.710;23.378;2022-12-18T02:11:40;95977.25;;;4.45;100.00
20077;BME280;12348;42.710;23.378;2022-12-18T02:14:17;95977.47;;;4.44;100.00
20077;BME280;12348;42.710;23.378;2022-12-18T02:16:52;95986.75;;;4.41;100.00
20077;BME280;12348;42.710;23.378;2022-12-18T02:19:34;95984.53;;;4.38;100.00
20077;BME280;12348;42.710;23.378;2022-12-18T02:22:15;95991.94;;;4.36;100.00
20077;BME280;12348;42.710;23.378;2022-12-18T02:24:57;95993.59;;;4.37;100.00
20077;BME280;12348;42.710;23.378;2022-12-18T02:27:27;95998.06;;;4.36;100.00
20077;BME280;12348;42.710;23.378;2022-12-18T02:29:57;95998.91;;;4.37;100.00
20077;BME280;12348;42.710;23.378;2022-12-18T02:32:27;95997.06;;;4.37;100.00
20077;BME280;12348;42.710;23.378;2022-12-18T02:34:56;95986.25;;;4.44;100.00
20077;BME280;12348;42.710;23.378;2022-12-18T02:37:25;95990.34;;;4.58;100.00
20077;BME280;12348;42.710;23.378;2022-12-18T02:39:56;95997.44;;;4.53;100.00
20077;BME280;12348;42.710;23.378;2022-12-18T02:42:24;95985.69;;;4.42;100.00
20077;BME280;12348;42.710;23.378;2022-12-18T02:44:52;95998.31;;;4.35;100.00
20077;BME280;12348;42.710;23.378;2022-12-18T02:47:22;95992.28;;;4.28;100.00
20077;BME280;12348;42.710;23.378;2022-12-18T02:49:54;95996.19;;;4.25;100.00
20077;BME280;12348;42.710;23.378;2022-12-18T02:52:31;95998.75;;;4.20;100.00
20077;BME280;12348;42.710;23.378;2022-12-18T02:55:11;95993.84;;;4.17;100.00
20077;BME280;12348;42.710;23.378;2022-12-18T02:57:44;95996.03;;;4.08;100.00
20077;BME280;12348;42.710;23.378;2022-12-18T03:00:16;96000.66;;;4.01;100.00
20077;BME280;12348;42.710;23.378;2022-12-18T03:02:47;95996.81;;;3.97;100.00
20077;BME280;12348;42.710;23.378;2022-12-18T03:05:17;96003.41;;;3.95;100.00
20077;BME280;12348;42.710;23.378;2022-12-18T03:07:48;96007.69;;;3.96;100.00
20077;BME280;12348;42.710;23.378;2022-12-18T03:10:21;96012.94;;;4.02;100.00
20077;BME280;12348;42.710;23.378;2022-12-18T03:12:53;96021.66;;;4.09;100.00
20077;BME280;12348;42.710;23.378;2022-12-18T03:15:26;96013.38;;;3.99;100.00
20077;BME280;12348;42.710;23.378;2022-12-18T03:17:57;96019.53;;;4.00;100.00
20077;BME280;12348;42.710;23.378;2022-12-18T03:20:27;96031.44;;;3.97;100.00
20077;BME280;12348;42.710;23.378;2022-12-18T03:23:02;96041.75;;;3.94;100.00
20077;BME280;12348;42.710;23.378;2022-12-18T03:25:31;96041.97;;;3.92;100.00
20077;BME280;12348;42.710;23.378;2022-12-18T03:28:01;96052.03;;;3.90;100.00
20077;BME280;12348;42.710;23.378;2022-12-18T03:30:32;96049.75;;;3.94;100.00
20077;BME280;12348;42.710;23.378;2022-12-18T03:33:05;96055.63;;;3.96;100.00
20077;BME280;12348;42.710;23.378;2022-12-18T03:35:37;96056.56;;;4.20;100.00
20077;BME280;12348;42.710;23.378;2022-12-18T03:38:05;96058.75;;;4.11;100.00
20077;BME280;12348;42.710;23.378;2022-12-18T03:40:38;96057.22;;;4.03;100.00
20077;BME280;12348;42.710;23.378;2022-12-18T03:43:10;96068.69;;;4.04;100.00
20077;BME280;12348;42.710;23.378;2022-12-18T03:45:48;96061.56;;;3.98;100.00
20077;BME280;12348;42.710;23.378;2022-12-18T03:48:22;96061.81;;;3.96;100.00
20077;BME280;12348;42.710;23.378;2022-12-18T03:50:55;96082.38;;;3.89;100.00
20077;BME280;12348;42.710;23.378;2022-12-18T03:53:28;96077.72;;;3.84;100.00
20077;BME280;12348;42.710;23.378;2022-12-18T03:56:00;96082.81;;;3.86;100.00
20077;BME280;12348;42.710;23.378;2022-12-18T03:58:29;96081.41;;;3.83;100.00
20077;BME280;12348;42.710;23.378;2022-12-18T04:01:03;96080.47;;;3.78;100.00
20077;BME280;12348;42.710;23.378;2022-12-18T04:03:32;96084.00;;;3.72;100.00
20077;BME280;12348;42.710;23.378;2022-12-18T04:06:00;96088.84;;;3.63;100.00
20077;BME280;12348;42.710;23.378;2022-12-18T04:08:28;96094.06;;;3.70;100.00
20077;BME280;12348;42.710;23.378;2022-12-18T04:10:55;96098.88;;;3.79;100.00
20077;BME280;12348;42.710;23.378;2022-12-18T04:13:23;96101.91;;;3.83;100.00
20077;BME280;12348;42.710;23.378;2022-12-18T04:15:49;96099.69;;;3.80;100.00
20077;BME280;12348;42.710;23.378;2022-12-18T04:18:18;96097.94;;;3.74;100.00
20077;BME280;12348;42.710;23.378;2022-12-18T04:20:45;96103.47;;;3.72;100.00
20077;BME280;12348;42.710;23.378;2022-12-18T04:23:11;96111.91;;;3.69;100.00
20077;BME280;12348;42.710;23.378;2022-12-18T04:25:38;96118.94;;;3.63;100.00
20077;BME280;12348;42.710;23.378;2022-12-18T04:28:05;96126.88;;;3.70;100.00
20077;BME280;12348;42.710;23.378;2022-12-18T04:30:32;96125.88;;;3.83;100.00
20077;BME280;12348;42.710;23.378;2022-12-18T04:32:59;96119.31;;;3.85;100.00
20077;BME280;12348;42.710;23.378;2022-12-18T04:35:27;96125.53;;;3.79;100.00
20077;BME280;12348;42.710;23.378;2022-12-18T04:37:54;96123.97;;;3.72;100.00
20077;BME280;12348;42.710;23.378;2022-12-18T04:40:20;96129.06;;;3.73;100.00
20077;BME280;12348;42.710;23.378;2022-12-18T04:42:47;96134.00;;;3.70;100.00
20077;BME280;12348;42.710;23.378;2022-12-18T04:45:14;96126.31;;;3.61;100.00
20077;BME280;12348;42.710;23.378;2022-12-18T04:47:41;96139.25;;;3.58;100.00
20077;BME280;12348;42.710;23.378;2022-12-18T04:50:08;96141.84;;;3.64;100.00
20077;BME280;12348;42.710;23.378;2022-12-18T04:52:36;96147.13;;;3.71;100.00
20077;BME280;12348;42.710;23.378;2022-12-18T04:55:03;96156.28;;;3.75;100.00
20077;BME280;12348;42.710;23.378;2022-12-18T04:57:30;96153.13;;;3.67;100.00
20077;BME280;12348;42.710;23.378;2022-12-18T04:59:56;96161.75;;;3.62;100.00
20077;BME280;12348;42.710;23.378;2022-12-18T05:02:23;96157.69;;;3.59;100.00
20077;BME280;12348;42.710;23.378;2022-12-18T05:04:50;96159.53;;;3.59;100.00
20077;BME280;12348;42.710;23.378;2022-12-18T05:07:17;96171.72;;;3.48;100.00
20077;BME280;12348;42.710;23.378;2022-12-18T05:09:45;96163.38;;;3.45;100.00
20077;BME280;12348;42.710;23.378;2022-12-18T05:12:12;96173.06;;;3.57;100.00
20077;BME280;12348;42.710;23.378;2022-12-18T05:14:39;96170.09;;;3.65;100.00
20077;BME280;12348;42.710;23.378;2022-12-18T05:17:05;96181.72;;;3.53;100.00
20077;BME280;12348;42.710;23.378;2022-12-18T05:19:32;96180.28;;;3.50;100.00
20077;BME280;12348;42.710;23.378;2022-12-18T05:21:59;96189.75;;;3.46;100.00
20077;BME280;12348;42.710;23.378;2022-12-18T05:24:26;96198.78;;;3.45;100.00
20077;BME280;12348;42.710;23.378;2022-12-18T05:26:54;96191.84;;;3.44;100.00
20077;BME280;12348;42.710;23.378;2022-12-18T05:29:21;96190.66;;;3.40;100.00
20077;BME280;12348;42.710;23.378;2022-12-18T05:31:48;96191.06;;;3.37;100.00
20077;BME280;12348;42.710;23.378;2022-12-18T05:34:15;96203.81;;;3.53;100.00
20077;BME280;12348;42.710;23.378;2022-12-18T05:36:42;96202.34;;;3.57;100.00
20077;BME280;12348;42.710;23.378;2022-12-18T05:39:09;96205.91;;;3.51;100.00
20077;BME280;12348;42.710;23.378;2022-12-18T05:41:36;96204.47;;;3.49;100.00
20077;BME280;12348;42.710;23.378;2022-12-18T05:44:04;96215.72;;;3.51;100.00
20077;BME280;12348;42.710;23.378;2022-12-18T05:46:31;96217.56;;;3.50;100.00
20077;BME280;12348;42.710;23.378;2022-12-18T05:48:59;96205.91;;;3.51;100.00
20077;BME280;12348;42.710;23.378;2022-12-18T05:51:27;96214.38;;;3.42;100.00
20077;BME280;12348;42.710;23.378;2022-12-18T05:53:54;96210.78;;;3.29;100.00
20077;BME280;12348;42.710;23.378;2022-12-18T05:56:22;96217.34;;;3.27;100.00
20077;BME280;12348;42.710;23.378;2022-12-18T05:58:51;96227.78;;;3.28;100.00
20077;BME280;12348;42.710;23.378;2022-12-18T06:01:23;96230.06;;;3.25;100.00
20077;BME280;12348;42.710;23.378;2022-12-18T06:03:50;96235.72;;;3.35;100.00
20077;BME280;12348;42.710;23.378;2022-12-18T06:06:18;96244.47;;;3.42;100.00
20077;BME280;12348;42.710;23.378;2022-12-18T06:08:45;96241.03;;;3.35;100.00
20077;BME280;12348;42.710;23.378;2022-12-18T06:11:12;96247.75;;;3.44;100.00
20077;BME280;12348;42.710;23.378;2022-12-18T06:13:39;96237.41;;;3.54;100.00
20077;BME280;12348;42.710;23.378;2022-12-18T06:16:07;96247.03;;;3.55;100.00
20077;BME280;12348;42.710;23.378;2022-12-18T06:18:36;96253.19;;;3.56;100.00
20077;BME280;12348;42.710;23.378;2022-12-18T06:21:03;96257.88;;;3.54;100.00
20077;BME280;12348;42.710;23.378;2022-12-18T06:23:30;96260.78;;;3.52;100.00
20077;BME280;12348;42.710;23.378;2022-12-18T06:25:57;96274.09;;;3.52;100.00
20077;BME280;12348;42.710;23.378;2022-12-18T06:28:24;96271.19;;;3.54;100.00
20077;BME280;12348;42.710;23.378;2022-12-18T06:30:51;96280.88;;;3.48;100.00
20077;BME280;12348;42.710;23.378;2022-12-18T06:33:18;96275.38;;;3.43;100.00
20077;BME280;12348;42.710;23.378;2022-12-18T06:35:47;96277.22;;;3.43;100.00
20077;BME280;12348;42.710;23.378;2022-12-18T06:38:14;96276.63;;;3.40;100.00
20077;BME280;12348;42.710;23.378;2022-12-18T06:40:41;96271.94;;;3.36;100.00
20077;BME280;12348;42.710;23.378;2022-12-18T06:43:07;96285.69;;;3.33;100.00
20077;BME280;12348;42.710;23.378;2022-12-18T06:45:34;96282.13;;;3.46;100.00
20077;BME280;12348;42.710;23.378;2022-12-18T06:48:01;96287.75;;;3.62;100.00
20077;BME280;12348;42.710;23.378;2022-12-18T06:50:29;96291.47;;;3.80;100.00
20077;BME280;12348;42.710;23.378;2022-12-18T06:52:59;96292.78;;;3.71;100.00
20077;BME280;12348;42.710;23.378;2022-12-18T06:55:25;96299.78;;;3.65;100.00
20077;BME280;12348;42.710;23.378;2022-12-18T06:57:52;96302.69;;;3.63;100.00
20077;BME280;12348;42.710;23.378;2022-12-18T07:00:19;96297.44;;;3.50;100.00
20077;BME280;12348;42.710;23.378;2022-12-18T07:02:46;96296.63;;;3.50;100.00
20077;BME280;12348;42.710;23.378;2022-12-18T07:05:12;96305.44;;;3.50;100.00
20077;BME280;12348;42.710;23.378;2022-12-18T07:07:39;96295.22;;;3.47;100.00
20077;BME280;12348;42.710;23.378;2022-12-18T07:10:08;96296.16;;;3.59;100.00
20077;BME280;12348;42.710;23.378;2022-12-18T07:12:35;96299.84;;;3.58;100.00
20077;BME280;12348;42.710;23.378;2022-12-18T07:15:03;96306.81;;;3.59;100.00
20077;BME280;12348;42.710;23.378;2022-12-18T07:17:29;96309.63;;;3.64;100.00
20077;BME280;12348;42.710;23.378;2022-12-18T07:19:56;96313.75;;;3.60;100.00
20077;BME280;12348;42.710;23.378;2022-12-18T07:22:24;96321.22;;;3.77;100.00
20077;BME280;12348;42.710;23.378;2022-12-18T07:24:51;96319.16;;;3.79;100.00
20077;BME280;12348;42.710;23.378;2022-12-18T07:27:19;96311.22;;;3.72;100.00
20077;BME280;12348;42.710;23.378;2022-12-18T07:29:46;96320.91;;;3.67;100.00
20077;BME280;12348;42.710;23.378;2022-12-18T07:32:13;96316.84;;;3.57;100.00
20077;BME280;12348;42.710;23.378;2022-12-18T07:34:40;96329.13;;;3.58;100.00
20077;BME280;12348;42.710;23.378;2022-12-18T07:37:06;96325.06;;;3.56;100.00
20077;BME280;12348;42.710;23.378;2022-12-18T07:39:33;96325.38;;;3.41;100.00
20077;BME280;12348;42.710;23.378;2022-12-18T07:42:00;96334.28;;;3.53;100.00
20077;BME280;12348;42.710;23.378;2022-12-18T07:44:45;96335.41;;;3.71;100.00
20077;BME280;12348;42.710;23.378;2022-12-18T07:47:12;96338.06;;;3.71;100.00
20077;BME280;12348;42.710;23.378;2022-12-18T07:49:39;96335.22;;;3.65;100.00
20077;BME280;12348;42.710;23.378;2022-12-18T07:52:06;96337.31;;;3.63;100.00
20077;BME280;12348;42.710;23.378;2022-12-18T07:54:33;96341.19;;;3.61;100.00
20077;BME280;12348;42.710;23.378;2022-12-18T07:57:00;96354.94;;;3.58;100.00
20077;BME280;12348;42.710;23.378;2022-12-18T07:59:27;96353.94;;;3.59;100.00
20077;BME280;12348;42.710;23.378;2022-12-18T08:01:55;96351.88;;;3.54;100.00
20077;BME280;12348;42.710;23.378;2022-12-18T08:04:22;96360.38;;;3.70;100.00
20077;BME280;12348;42.710;23.378;2022-12-18T08:06:49;96371.38;;;3.80;100.00
20077;BME280;12348;42.710;23.378;2022-12-18T08:09:16;96362.97;;;3.83;100.00
20077;BME280;12348;42.710;23.378;2022-12-18T08:11:42;96370.59;;;3.79;100.00
20077;BME280;12348;42.710;23.378;2022-12-18T08:14:10;96376.56;;;3.75;100.00
20077;BME280;12348;42.710;23.378;2022-12-18T08:16:36;96380.50;;;3.65;100.00
20077;BME280;12348;42.710;23.378;2022-12-18T08:19:06;96371.72;;;3.58;100.00
20077;BME280;12348;42.710;23.378;2022-12-18T08:21:34;96385.28;;;3.57;100.00
20077;BME280;12348;42.710;23.378;2022-12-18T08:24:01;96387.78;;;3.52;100.00
20077;BME280;12348;42.710;23.378;2022-12-18T08:26:29;96397.56;;;3.58;100.00
20077;BME280;12348;42.710;23.378;2022-12-18T08:28:58;96392.06;;;3.53;100.00
20077;BME280;12348;42.710;23.378;2022-12-18T08:31:26;96387.97;;;3.50;100.00
20077;BME280;12348;42.710;23.378;2022-12-18T08:33:54;96399.41;;;3.57;100.00
20077;BME280;12348;42.710;23.378;2022-12-18T08:36:23;96408.25;;;3.83;100.00
20077;BME280;12348;42.710;23.378;2022-12-18T08:38:50;96402.59;;;3.73;100.00
20077;BME280;12348;42.710;23.378;2022-12-18T08:41:18;96405.22;;;3.79;100.00
20077;BME280;12348;42.710;23.378;2022-12-18T08:43:45;96407.16;;;3.97;100.00
20077;BME280;12348;42.710;23.378;2022-12-18T08:46:33;96392.28;;;3.83;100.00
20077;BME280;12348;42.710;23.378;2022-12-18T08:49:00;96407.06;;;3.79;100.00
20077;BME280;12348;42.710;23.378;2022-12-18T08:51:28;96411.47;;;3.92;100.00
20077;BME280;12348;42.710;23.378;2022-12-18T08:53:55;96416.88;;;3.85;100.00
20077;BME280;12348;42.710;23.378;2022-12-18T08:56:23;96402.38;;;3.74;100.00
20077;BME280;12348;42.710;23.378;2022-12-18T08:58:51;96403.78;;;3.77;100.00
20077;BME280;12348;42.710;23.378;2022-12-18T09:01:18;96405.47;;;3.71;100.00
20077;BME280;12348;42.710;23.378;2022-12-18T09:03:45;96409.09;;;3.77;100.00
20077;BME280;12348;42.710;23.378;2022-12-18T09:06:13;96399.56;;;3.94;100.00
20077;BME280;12348;42.710;23.378;2022-12-18T09:08:42;96397.34;;;3.91;100.00
20077;BME280;12348;42.710;23.378;2022-12-18T09:11:13;96407.31;;;4.02;100.00
20077;BME280;12348;42.710;23.378;2022-12-18T09:13:40;96411.78;;;4.08;100.00
20077;BME280;12348;42.710;23.378;2022-12-18T09:16:07;96395.34;;;4.11;100.00
20077;BME280;12348;42.710;23.378;2022-12-18T09:18:34;96408.88;;;4.10;100.00
20077;BME280;12348;42.710;23.378;2022-12-18T09:21:07;96404.53;;;4.16;100.00
20077;BME280;12348;42.710;23.378;2022-12-18T09:23:34;96396.97;;;4.12;100.00
20077;BME280;12348;42.710;23.378;2022-12-18T09:26:02;96399.50;;;4.07;100.00
20077;BME280;12348;42.710;23.378;2022-12-18T09:28:29;96407.31;;;4.02;100.00
20077;BME280;12348;42.710;23.378;2022-12-18T09:30:56;96404.81;;;4.07;100.00
20077;BME280;12348;42.710;23.378;2022-12-18T09:33:23;96401.53;;;4.05;100.00
20077;BME280;12348;42.710;23.378;2022-12-18T09:35:49;96407.97;;;4.23;100.00
20077;BME280;12348;42.710;23.378;2022-12-18T09:38:18;96411.84;;;4.27;100.00
20077;BME280;12348;42.710;23.378;2022-12-18T09:40:48;96412.00;;;4.32;100.00
20077;BME280;12348;42.710;23.378;2022-12-18T09:43:18;96405.38;;;4.41;100.00
20077;BME280;12348;42.710;23.378;2022-12-18T09:45:49;96418.94;;;4.33;100.00
20077;BME280;12348;42.710;23.378;2022-12-18T09:48:23;96413.78;;;4.38;100.00
20077;BME280;12348;42.710;23.378;2022-12-18T09:50:50;96404.75;;;4.39;100.00
20077;BME280;12348;42.710;23.378;2022-12-18T09:53:21;96422.13;;;4.23;100.00
20077;BME280;12348;42.710;23.378;2022-12-18T09:55:48;96411.94;;;4.38;100.00
20077;BME280;12348;42.710;23.378;2022-12-18T09:58:24;96418.84;;;4.46;100.00
20077;BME280;12348;42.710;23.378;2022-12-18T10:00:53;96409.22;;;4.45;100.00
20077;BME280;12348;42.710;23.378;2022-12-18T10:03:21;96414.13;;;4.48;100.00
20077;BME280;12348;42.710;23.378;2022-12-18T10:05:55;96406.72;;;4.69;100.00
20077;BME280;12348;42.710;23.378;2022-12-18T10:08:33;96406.59;;;5.00;100.00
20077;BME280;12348;42.710;23.378;2022-12-18T10:11:15;96413.78;;;5.00;100.00
20077;BME280;12348;42.710;23.378;2022-12-18T10:13:49;96400.22;;;5.20;100.00
20077;BME280;12348;42.710;23.378;2022-12-18T10:16:24;96408.97;;;4.90;100.00
20077;BME280;12348;42.710;23.378;2022-12-18T10:19:09;96395.34;;;4.98;100.00
20077;BME280;12348;42.710;23.378;2022-12-18T10:21:44;96404.59;;;4.96;100.00
20077;BME280;12348;42.710;23.378;2022-12-18T10:24:17;96410.84;;;5.08;100.00
20077;BME280;12348;42.710;23.378;2022-12-18T10:26:49;96410.69;;;5.03;100.00
20077;BME280;12348;42.710;23.378;2022-12-18T10:29:17;96400.50;;;5.11;100.00
20077;BME280;12348;42.710;23.378;2022-12-18T10:31:44;96399.69;;;5.11;100.00
20077;BME280;12348;42.710;23.378;2022-12-18T10:34:11;96407.50;;;4.94;100.00
20077;BME280;12348;42.710;23.378;2022-12-18T10:36:39;96410.09;;;5.01;100.00
20077;BME280;12348;42.710;23.378;2022-12-18T10:39:16;96403.53;;;5.33;100.00
20077;BME280;12348;42.710;23.378;2022-12-18T10:41:43;96401.00;;;5.57;100.00
20077;BME280;12348;42.710;23.378;2022-12-18T10:44:15;96401.22;;;5.37;100.00
20077;BME280;12348;42.710;23.378;2022-12-18T10:46:46;96401.38;;;5.42;100.00
20077;BME280;12348;42.710;23.378;2022-12-18T10:49:19;96399.09;;;5.27;100.00
20077;BME280;12348;42.710;23.378;2022-12-18T10:51:48;96398.44;;;5.32;100.00
20077;BME280;12348;42.710;23.378;2022-12-18T10:54:17;96396.38;;;4.97;100.00
20077;BME280;12348;42.710;23.378;2022-12-18T10:56:45;96403.94;;;4.82;100.00
20077;BME280;12348;42.710;23.378;2022-12-18T10:59:13;96401.28;;;4.82;100.00
20077;BME280;12348;42.710;23.378;2022-12-18T11:01:49;96392.16;;;4.90;100.00
20077;BME280;12348;42.710;23.378;2022-12-18T11:04:19;96399.78;;;4.86;100.00
20077;BME280;12348;42.710;23.378;2022-12-18T11:06:58;96384.53;;;4.93;100.00
20077;BME280;12348;42.710;23.378;2022-12-18T11:09:26;96384.91;;;4.97;100.00
20077;BME280;12348;42.710;23.378;2022-12-18T11:11:54;96387.03;;;5.06;100.00
20077;BME280;12348;42.710;23.378;2022-12-18T11:14:23;96397.56;;;4.83;100.00
20077;BME280;12348;42.710;23.378;2022-12-18T11:16:53;96401.72;;;4.79;100.00
20077;BME280;12348;42.710;23.378;2022-12-18T11:19:31;96401.72;;;4.79;100.00
20077;BME280;12348;42.710;23.378;2022-12-18T11:22:00;96394.38;;;4.74;100.00
20077;BME280;12348;42.710;23.378;2022-12-18T11:24:29;96406.38;;;4.83;100.00
20077;BME280;12348;42.710;23.378;2022-12-18T11:26:58;96409.41;;;4.87;100.00
20077;BME280;12348;42.710;23.378;2022-12-18T11:29:36;96418.69;;;4.84;100.00
20077;BME280;12348;42.710;23.378;2022-12-18T11:32:24;96409.34;;;4.75;100.00
20077;BME280;12348;42.710;23.378;2022-12-18T11:34:57;96410.72;;;4.78;100.00
20077;BME280;12348;42.710;23.378;2022-12-18T11:37:27;96404.75;;;4.82;100.00
20077;BME280;12348;42.710;23.378;2022-12-18T11:39:57;96407.13;;;4.91;100.00
20077;BME280;12348;42.710;23.378;2022-12-18T11:42:32;96408.69;;;4.98;100.00
20077;BME280;12348;42.710;23.378;2022-12-18T11:45:17;96407.34;;;5.07;100.00
20077;BME280;12348;42.710;23.378;2022-12-18T11:47:54;96400.06;;;4.96;100.00
20077;BME280;12348;42.710;23.378;2022-12-18T11:50:24;96411.66;;;4.90;100.00
20077;BME280;12348;42.710;23.378;2022-12-18T11:52:52;96411.41;;;4.92;100.00
20077;BME280;12348;42.710;23.378;2022-12-18T11:55:27;96413.41;;;4.96;100.00
20077;BME280;12348;42.710;23.378;2022-12-18T11:58:01;96415.06;;;4.97;100.00
20077;BME280;12348;42.710;23.378;2022-12-18T12:00:30;96412.47;;;4.91;100.00
20077;BME280;12348;42.710;23.378;2022-12-18T12:03:13;96408.75;;;4.92;100.00
20077;BME280;12348;42.710;23.378;2022-12-18T12:06:03;96404.47;;;4.91;100.00
20077;BME280;12348;42.710;23.378;2022-12-18T12:08:46;96412.22;;;5.10;100.00
20077;BME280;12348;42.710;23.378;2022-12-18T12:11:26;96412.09;;;5.05;100.00
20077;BME280;12348;42.710;23.378;2022-12-18T12:14:08;96412.78;;;5.01;100.00
20077;BME280;12348;42.710;23.378;2022-12-18T12:16:47;96415.81;;;5.04;100.00
20077;BME280;12348;42.710;23.378;2022-12-18T12:19:28;96400.97;;;5.08;100.00
20077;BME280;12348;42.710;23.378;2022-12-18T12:22:02;96409.13;;;5.14;100.00
20077;BME280;12348;42.710;23.378;2022-12-18T12:24:39;96414.59;;;5.19;100.00
20077;BME280;12348;42.710;23.378;2022-12-18T12:27:19;96410.47;;;5.23;100.00
20077;BME280;12348;42.710;23.378;2022-12-18T12:30:01;96405.19;;;5.16;100.00
20077;BME280;12348;42.710;23.378;2022-12-18T12:32:45;96418.56;;;5.16;100.00
20077;BME280;12348;42.710;23.378;2022-12-18T12:35:28;96417.44;;;5.24;100.00
20077;BME280;12348;42.710;23.378;2022-12-18T12:38:05;96423.06;;;5.16;100.00
20077;BME280;12348;42.710;23.378;2022-12-18T12:40:36;96426.00;;;5.26;100.00
20077;BME280;12348;42.710;23.378;2022-12-18T12:43:16;96419.78;;;5.32;100.00
20077;BME280;12348;42.710;23.378;2022-12-18T12:45:48;96415.66;;;5.18;100.00
20077;BME280;12348;42.710;23.378;2022-12-18T12:48:19;96418.09;;;5.19;100.00
20077;BME280;12348;42.710;23.378;2022-12-18T12:50:51;96412.09;;;5.05;100.00
20077;BME280;12348;42.710;23.378;2022-12-18T12:53:25;96412.91;;;5.06;100.00
20077;BME280;12348;42.710;23.378;2022-12-18T12:55:53;96422.47;;;5.14;100.00
20077;BME280;12348;42.710;23.378;2022-12-18T12:58:27;96418.25;;;5.06;100.00
20077;BME280;12348;42.710;23.378;2022-12-18T13:01:04;96415.88;;;4.98;100.00
20077;BME280;12348;42.710;23.378;2022-12-18T13:03:42;96425.50;;;4.99;100.00
20077;BME280;12348;42.710;23.378;2022-12-18T13:06:16;96434.69;;;5.03;100.00